createdAt,value
2019-03-12T00:01:44.792Z,13.60
2019-03-12T00:04:12.117Z,13.30
2019-03-12T00:06:39.483Z,13.70
2019-03-12T00:09:06.810Z,13.40
2019-03-12T00:11:34.176Z,15.70
2019-03-12T00:14:01.545Z,15.20
2019-03-12T00:16:28.869Z,15.60
2019-03-12T00:18:56.201Z,15.40
2019-03-12T00:21:23.606Z,14.40
2019-03-12T00:23:51.007Z,15.90
2019-03-12T00:26:18.339Z,16.30
2019-03-12T00:28:45.660Z,16.03
2019-03-12T00:31:12.998Z,18.20
2019-03-12T00:33:40.330Z,17.37
2019-03-12T00:36:07.749Z,16.37
2019-03-12T00:38:35.058Z,16.33
2019-03-12T00:41:02.404Z,17.17
2019-03-12T00:43:29.747Z,18.20
2019-03-12T00:45:57.096Z,17.93
2019-03-12T00:48:24.479Z,17.47
2019-03-12T00:50:51.817Z,18.50
2019-03-12T00:53:19.149Z,19.83
2019-03-12T00:55:46.471Z,19.53
2019-03-12T00:58:13.826Z,20.80
2019-03-12T01:00:41.181Z,21.50
2019-03-12T01:03:08.586Z,20.10
2019-03-12T01:05:35.976Z,19.07
2019-03-12T01:08:03.319Z,20.17
2019-03-12T01:10:30.804Z,19.80
2019-03-12T01:12:58.166Z,21.27
2019-03-12T01:15:25.504Z,21.40
2019-03-12T01:17:52.858Z,20.83
2019-03-12T01:20:20.193Z,20.73
2019-03-12T01:22:47.504Z,22.53
2019-03-12T01:25:14.866Z,19.67
2019-03-12T01:27:42.188Z,20.07
2019-03-12T01:30:11.083Z,19.90
2019-03-12T01:32:38.415Z,19.73
2019-03-12T01:35:06.581Z,20.47
2019-03-12T01:37:33.987Z,18.80
2019-03-12T01:40:01.219Z,20.47
2019-03-12T01:42:28.601Z,20.10
2019-03-12T01:44:55.912Z,20.43
2019-03-12T01:47:23.230Z,19.47
2019-03-12T01:49:50.621Z,20.13
2019-03-12T01:52:17.935Z,20.20
2019-03-12T01:54:45.280Z,19.90
2019-03-12T01:57:12.641Z,19.10
2019-03-12T01:59:40.028Z,19.33
2019-03-12T02:02:07.345Z,19.13
2019-03-12T02:04:35.304Z,18.90
2019-03-12T02:07:02.620Z,18.83
2019-03-12T02:09:30.621Z,17.57
2019-03-12T02:11:58.072Z,15.07
2019-03-12T02:14:26.165Z,16.37
2019-03-12T02:16:53.498Z,16.67
2019-03-12T02:19:20.897Z,15.97
2019-03-12T02:21:48.213Z,16.80
2019-03-12T02:24:15.632Z,17.33
2019-03-12T02:26:43.028Z,17.73
2019-03-12T02:29:10.353Z,14.40
2019-03-12T02:31:38.060Z,16.43
2019-03-12T02:34:05.426Z,16.37
2019-03-12T02:36:32.731Z,18.47
2019-03-12T02:39:00.056Z,16.73
2019-03-12T02:41:27.406Z,17.60
2019-03-12T02:43:54.742Z,18.57
2019-03-12T02:46:22.051Z,17.77
2019-03-12T02:48:49.537Z,17.00
2019-03-12T02:51:16.844Z,18.97
2019-03-12T02:53:44.184Z,18.77
2019-03-12T02:56:11.512Z,20.13
2019-03-12T02:58:39.127Z,22.17
2019-03-12T03:01:06.437Z,20.87
2019-03-12T03:03:33.788Z,21.30
2019-03-12T03:06:11.954Z,21.97
2019-03-12T03:08:39.541Z,21.03
2019-03-12T03:11:06.864Z,20.87
2019-03-12T03:13:34.206Z,20.73
2019-03-12T03:16:01.661Z,20.73
2019-03-12T03:18:28.974Z,20.93
2019-03-12T03:20:56.312Z,21.47
2019-03-12T03:23:23.632Z,19.43
2019-03-12T03:25:50.965Z,20.00
2019-03-12T03:28:18.287Z,17.73
2019-03-12T03:30:45.609Z,17.67
2019-03-12T03:33:12.926Z,20.53
2019-03-12T03:35:40.512Z,22.20
2019-03-12T03:38:07.780Z,24.00
2019-03-12T03:40:35.115Z,23.17
2019-03-12T03:43:02.462Z,22.67
2019-03-12T03:45:29.779Z,21.57
2019-03-12T03:47:57.089Z,22.80
2019-03-12T03:50:24.437Z,22.93
2019-03-12T03:52:51.738Z,23.93
2019-03-12T03:55:22.351Z,22.83
2019-03-12T03:57:49.705Z,23.97
2019-03-12T04:00:20.858Z,23.93
2019-03-12T04:02:48.216Z,23.50
2019-03-12T04:05:15.611Z,25.33
2019-03-12T04:07:43.399Z,23.07
2019-03-12T04:10:11.614Z,23.60
2019-03-12T04:12:38.932Z,24.87
2019-03-12T04:15:07.866Z,22.93
2019-03-12T04:17:35.223Z,24.20
2019-03-12T04:20:02.894Z,22.50
2019-03-12T04:22:30.233Z,23.40
2019-03-12T04:24:57.578Z,22.77
2019-03-12T04:27:24.943Z,24.37
2019-03-12T04:29:52.285Z,20.30
2019-03-12T04:32:19.587Z,23.17
2019-03-12T04:34:46.922Z,22.73
2019-03-12T04:37:14.240Z,21.63
2019-03-12T04:39:41.577Z,19.20
2019-03-12T04:42:08.965Z,19.53
2019-03-12T04:44:36.403Z,16.30
2019-03-12T04:47:03.721Z,15.43
2019-03-12T04:49:31.033Z,15.53
2019-03-12T04:51:58.385Z,17.67
2019-03-12T04:54:25.692Z,18.80
2019-03-12T04:56:53.045Z,20.00
2019-03-12T04:59:20.347Z,19.20
2019-03-12T05:01:48.255Z,20.33
2019-03-12T05:04:15.571Z,17.47
2019-03-12T05:06:42.950Z,17.80
2019-03-12T05:09:10.263Z,19.17
2019-03-12T05:11:37.604Z,20.47
2019-03-12T05:14:23.196Z,19.57
2019-03-12T05:16:51.191Z,18.63
2019-03-12T05:19:18.532Z,18.80
2019-03-12T05:21:45.915Z,17.93
2019-03-12T05:24:13.266Z,16.97
2019-03-12T05:26:40.579Z,17.93
2019-03-12T05:29:08.004Z,16.73
2019-03-12T05:31:35.322Z,16.90
2019-03-12T05:34:02.679Z,19.00
2019-03-12T05:36:30.015Z,12.50
2019-03-12T05:38:57.884Z,13.60
2019-03-12T05:41:25.206Z,13.83
2019-03-12T05:43:52.624Z,15.00
2019-03-12T05:46:19.962Z,14.13
2019-03-12T05:48:47.306Z,14.87
2019-03-12T05:51:14.703Z,14.43
2019-03-12T05:53:47.260Z,15.33
2019-03-12T05:56:14.584Z,15.90
2019-03-12T05:58:41.984Z,15.33
2019-03-12T06:01:09.384Z,13.97
2019-03-12T06:03:36.684Z,13.47
2019-03-12T06:06:04.120Z,14.47
2019-03-12T06:08:31.461Z,15.40
2019-03-12T06:10:58.780Z,14.67
2019-03-12T06:13:26.123Z,12.83
2019-03-12T06:15:54.060Z,13.97
2019-03-12T06:18:21.400Z,16.00
2019-03-12T06:20:48.722Z,13.47
2019-03-12T06:23:16.079Z,18.10
2019-03-12T06:25:43.432Z,18.10
2019-03-12T06:28:10.815Z,17.40
2019-03-12T06:30:40.012Z,13.37
2019-03-12T06:33:09.060Z,16.03
2019-03-12T06:35:38.041Z,14.97
2019-03-12T06:38:16.007Z,13.03
2019-03-12T06:40:47.592Z,14.57
2019-03-12T06:43:28.357Z,13.07
2019-03-12T06:46:06.312Z,14.00
2019-03-12T06:48:41.289Z,16.27
2019-03-12T06:51:13.255Z,12.73
2019-03-12T06:53:45.166Z,14.50
2019-03-12T06:56:22.923Z,15.87
2019-03-12T06:59:03.606Z,14.73
2019-03-12T07:01:47.649Z,17.53
2019-03-12T07:04:33.272Z,20.07
2019-03-12T07:07:11.568Z,19.30
2019-03-12T07:09:44.786Z,19.23
2019-03-12T07:12:26.121Z,17.30
2019-03-12T07:15:07.346Z,15.67
2019-03-12T07:17:51.652Z,14.67
2019-03-12T07:20:26.362Z,15.27
2019-03-12T07:22:55.379Z,15.87
2019-03-12T07:25:24.505Z,19.73
2019-03-12T07:27:56.513Z,21.77
2019-03-12T07:30:28.307Z,22.50
2019-03-12T07:33:09.373Z,21.03
2019-03-12T07:35:50.353Z,21.77
2019-03-12T07:38:19.346Z,23.40
2019-03-12T07:41:04.518Z,20.37
2019-03-12T07:43:33.485Z,19.27
2019-03-12T07:46:05.505Z,19.50
2019-03-12T07:48:34.513Z,18.70
2019-03-12T07:51:12.576Z,18.33
2019-03-12T07:53:59.691Z,20.20
2019-03-12T07:56:28.537Z,19.07
2019-03-12T07:58:59.572Z,18.90
2019-03-12T08:01:34.201Z,20.10
2019-03-12T08:04:20.177Z,17.87
2019-03-12T08:06:52.072Z,19.90
2019-03-12T08:09:33.316Z,16.30
2019-03-12T08:12:02.378Z,16.00
2019-03-12T08:17:29.888Z,16.70
2019-03-12T08:20:04.847Z,17.80
2019-03-12T08:22:59.095Z,18.43
2019-03-12T08:25:30.635Z,19.23
2019-03-12T08:28:05.715Z,14.83
2019-03-12T08:30:34.740Z,14.93
2019-03-12T08:33:03.751Z,12.70
2019-03-12T08:35:41.352Z,15.63
2019-03-12T08:38:16.313Z,11.20
2019-03-12T08:41:01.885Z,11.27
2019-03-12T08:43:30.882Z,10.60
2019-03-12T08:46:08.679Z,10.43
2019-03-12T08:48:40.090Z,12.10
2019-03-12T08:51:18.123Z,11.27
2019-03-12T08:54:02.337Z,11.97
2019-03-12T08:56:34.502Z,12.50
2019-03-12T08:59:15.722Z,11.40
2019-03-12T09:01:57.099Z,13.13
2019-03-12T09:04:42.359Z,12.57
2019-03-12T09:07:14.283Z,12.30
2019-03-12T09:09:52.378Z,13.53
2019-03-12T09:12:30.335Z,12.73
2019-03-12T09:15:15.496Z,10.97
2019-03-12T09:17:44.483Z,7.90
2019-03-12T09:20:13.535Z,6.07
2019-03-12T09:22:51.138Z,7.30
2019-03-12T09:25:38.356Z,7.90
2019-03-12T09:28:15.981Z,8.40
2019-03-12T09:30:56.945Z,9.20
2019-03-12T09:33:42.267Z,10.33
2019-03-12T09:36:14.014Z,8.53
2019-03-12T09:38:55.092Z,8.50
2019-03-12T09:41:24.148Z,10.60
2019-03-12T09:44:09.807Z,9.07
2019-03-12T09:46:47.668Z,8.43
2019-03-12T09:49:16.682Z,7.10
2019-03-12T09:51:45.656Z,6.57
2019-03-12T09:54:32.869Z,6.93
2019-03-12T09:57:04.298Z,11.40
2019-03-12T09:59:49.690Z,9.63
2019-03-12T10:02:18.637Z,9.60
2019-03-12T10:05:04.295Z,10.30
2019-03-12T10:07:40.105Z,10.50
2019-03-12T10:10:26.548Z,12.70
2019-03-12T10:13:13.455Z,11.90
2019-03-12T10:15:48.711Z,10.20
2019-03-12T10:18:17.689Z,9.23
2019-03-12T10:20:49.454Z,8.33
2019-03-12T10:23:18.521Z,7.60
2019-03-12T10:25:47.549Z,9.13
2019-03-12T10:28:16.515Z,9.97
2019-03-12T10:31:03.884Z,7.60
2019-03-12T10:33:49.109Z,7.17
2019-03-12T10:36:36.156Z,6.23
2019-03-12T10:39:23.282Z,9.60
2019-03-12T10:42:04.496Z,6.73
2019-03-12T10:44:50.068Z,5.67
2019-03-12T10:47:19.063Z,6.43
2019-03-12T10:49:46.421Z,9.30
2019-03-12T10:52:14.292Z,7.33
2019-03-12T10:54:41.637Z,5.43
2019-03-12T10:57:08.958Z,6.23
2019-03-12T10:59:37.391Z,5.50
2019-03-12T11:02:04.709Z,6.57
2019-03-12T11:04:32.081Z,3.63
2019-03-12T11:06:59.482Z,3.30
2019-03-12T11:09:26.788Z,4.13
2019-03-12T11:11:54.131Z,4.77
2019-03-12T11:14:21.534Z,4.37
2019-03-12T11:16:52.768Z,4.43
2019-03-12T11:19:20.092Z,5.23
2019-03-12T11:21:47.520Z,8.77
2019-03-12T11:24:15.472Z,7.20
2019-03-12T11:26:42.782Z,5.40
2019-03-12T11:29:10.125Z,5.37
2019-03-12T11:31:37.434Z,6.13
2019-03-12T11:34:04.768Z,5.37
2019-03-12T11:36:32.079Z,4.67
2019-03-12T11:38:59.448Z,5.37
2019-03-12T11:41:26.746Z,4.43
2019-03-12T11:43:54.144Z,5.27
2019-03-12T11:46:21.556Z,4.83
2019-03-12T11:48:49.125Z,5.10
2019-03-12T11:51:17.396Z,5.17
2019-03-12T11:53:44.734Z,5.80
2019-03-12T11:56:12.094Z,6.60
2019-03-12T11:58:39.443Z,5.93
2019-03-12T12:01:08.609Z,6.33
2019-03-12T12:03:35.968Z,6.43
2019-03-12T12:06:03.332Z,6.93
2019-03-12T12:08:30.773Z,5.77
2019-03-12T12:10:58.089Z,4.03
2019-03-12T12:13:25.476Z,3.80
2019-03-12T12:15:52.821Z,4.70
2019-03-12T12:18:20.980Z,4.37
2019-03-12T12:20:48.338Z,3.90
2019-03-12T12:23:15.669Z,4.50
2019-03-12T12:25:42.988Z,5.40
2019-03-12T12:28:10.413Z,5.73
2019-03-12T12:30:37.720Z,5.47
2019-03-12T12:33:05.174Z,5.83
2019-03-12T12:35:32.466Z,6.77
2019-03-12T12:37:59.853Z,6.90
2019-03-12T12:40:27.406Z,11.00
2019-03-12T12:42:54.842Z,7.50
2019-03-12T12:45:26.284Z,7.53
2019-03-12T12:47:53.782Z,8.77
2019-03-12T12:50:21.644Z,7.03
2019-03-12T12:52:48.929Z,9.17
2019-03-12T12:55:16.292Z,9.13
2019-03-12T12:57:43.604Z,9.73
2019-03-12T13:00:21.040Z,10.90
2019-03-12T13:02:48.359Z,11.67
2019-03-12T13:05:15.770Z,7.80
2019-03-12T13:07:43.151Z,7.37
2019-03-12T13:10:11.936Z,6.20
2019-03-12T13:12:39.340Z,13.80
2019-03-12T13:15:08.307Z,11.20
2019-03-12T13:17:35.642Z,9.77
2019-03-12T13:20:03.202Z,13.77
2019-03-12T13:22:30.578Z,7.80
2019-03-12T13:24:57.888Z,6.53
2019-03-12T13:27:25.579Z,8.57
2019-03-12T13:29:52.933Z,7.00
2019-03-12T13:32:20.313Z,5.70
2019-03-12T13:34:47.880Z,6.10
2019-03-12T13:37:15.240Z,6.30
2019-03-12T13:39:42.621Z,11.30
2019-03-12T13:42:09.933Z,7.97
2019-03-12T13:44:37.299Z,7.17
2019-03-12T13:47:04.587Z,6.70
2019-03-12T13:49:31.897Z,6.00
2019-03-12T13:51:59.248Z,4.47
2019-03-12T13:54:26.917Z,4.37
2019-03-12T13:56:54.223Z,4.83
2019-03-12T13:59:21.567Z,4.53
2019-03-12T14:01:48.900Z,5.97
2019-03-12T14:04:16.244Z,5.50
2019-03-12T14:06:43.564Z,5.77
2019-03-12T14:09:10.873Z,5.37
2019-03-12T14:11:39.833Z,6.17
2019-03-12T14:14:07.166Z,5.33
2019-03-12T14:16:34.476Z,6.20
2019-03-12T14:19:03.620Z,5.87
2019-03-12T14:21:32.516Z,6.00
2019-03-12T14:24:00.674Z,6.20
2019-03-12T14:26:28.355Z,6.00
2019-03-12T14:28:55.918Z,4.83
2019-03-12T14:31:23.253Z,5.53
2019-03-12T14:33:50.561Z,4.70
2019-03-12T14:36:17.910Z,4.70
2019-03-12T14:38:45.293Z,4.17
2019-03-12T14:41:12.613Z,4.13
2019-03-12T14:43:39.940Z,3.80
2019-03-12T14:46:07.294Z,5.00
2019-03-12T14:48:36.262Z,4.83
2019-03-12T14:51:04.088Z,4.70
2019-03-12T14:53:31.699Z,5.67
2019-03-12T14:55:59.026Z,5.63
2019-03-12T14:58:26.366Z,4.37
2019-03-12T15:00:53.817Z,4.23
2019-03-12T15:03:21.285Z,4.37
2019-03-12T15:05:48.755Z,5.40
2019-03-12T15:08:16.163Z,4.20
2019-03-12T15:10:43.506Z,4.33
2019-03-12T15:13:12.540Z,4.83
2019-03-12T15:15:39.833Z,5.80
2019-03-12T15:18:07.176Z,4.10
2019-03-12T15:20:34.739Z,4.70
2019-03-12T15:23:02.015Z,4.90
2019-03-12T15:25:29.336Z,4.70
2019-03-12T15:27:56.679Z,4.17
2019-03-12T15:30:25.355Z,4.73
2019-03-12T15:32:52.785Z,3.50
2019-03-12T15:35:20.182Z,4.43
2019-03-12T15:37:47.539Z,5.47
2019-03-12T15:40:14.964Z,5.80
2019-03-12T15:42:42.310Z,4.13
2019-03-12T15:45:11.254Z,4.50
2019-03-12T15:47:39.061Z,5.43
2019-03-12T15:50:09.827Z,5.60
2019-03-12T15:52:37.752Z,4.47
2019-03-12T15:55:08.550Z,4.30
2019-03-12T15:57:36.316Z,5.27
2019-03-12T16:00:05.168Z,5.23
2019-03-12T16:02:32.597Z,5.63
2019-03-12T16:05:03.771Z,5.80
2019-03-12T16:07:31.112Z,4.90
2019-03-12T16:09:58.498Z,5.87
2019-03-12T16:12:25.828Z,6.60
2019-03-12T16:14:53.146Z,7.57
2019-03-12T16:17:20.508Z,8.97
2019-03-12T16:19:47.804Z,9.67
2019-03-12T16:22:15.118Z,10.67
2019-03-12T16:24:42.514Z,11.03
2019-03-12T16:27:09.881Z,13.90
2019-03-12T16:29:37.455Z,13.17
2019-03-12T16:32:04.891Z,13.67
2019-03-12T16:34:33.554Z,14.30
2019-03-12T16:37:00.945Z,13.60
2019-03-12T16:39:28.261Z,12.77
2019-03-12T16:41:55.612Z,14.03
2019-03-12T16:44:22.994Z,15.13
2019-03-12T16:46:50.350Z,17.43
2019-03-12T16:49:24.911Z,17.33
2019-03-12T16:51:49.734Z,17.87
2019-03-12T16:54:17.049Z,17.67
2019-03-12T16:56:45.773Z,16.67
2019-03-12T16:59:13.229Z,17.20
2019-03-12T17:01:40.869Z,14.93
2019-03-12T17:04:08.166Z,16.27
2019-03-12T17:06:35.522Z,16.53
2019-03-12T17:09:04.508Z,16.13
2019-03-12T17:11:31.825Z,16.30
2019-03-12T17:14:05.520Z,17.73
2019-03-12T17:16:32.803Z,20.33
2019-03-12T17:19:00.156Z,20.20
2019-03-12T17:21:27.475Z,22.70
2019-03-12T17:23:54.837Z,24.87
2019-03-12T17:26:29.799Z,27.93
2019-03-12T17:28:57.121Z,30.77
2019-03-12T17:31:24.449Z,29.43
2019-03-12T17:33:51.792Z,30.33
2019-03-12T17:36:19.088Z,31.27
2019-03-12T17:38:47.331Z,36.37
2019-03-12T17:41:14.663Z,34.07
2019-03-12T17:43:42.107Z,37.63
2019-03-12T17:46:09.453Z,43.43
2019-03-12T17:48:36.775Z,45.87
2019-03-12T17:51:04.131Z,52.13
2019-03-12T17:53:31.456Z,52.27
2019-03-12T17:55:58.838Z,58.57
2019-03-12T17:58:26.172Z,78.20
2019-03-12T18:00:53.559Z,87.00
2019-03-12T18:03:21.018Z,92.93
2019-03-12T18:05:48.477Z,95.83
2019-03-12T18:08:15.826Z,118.30
2019-03-12T18:10:43.286Z,152.33
2019-03-12T18:13:10.782Z,151.90
2019-03-12T18:15:38.105Z,171.63
2019-03-12T18:18:05.506Z,170.73
2019-03-12T18:20:34.598Z,169.63
2019-03-12T18:23:02.081Z,158.37
2019-03-12T18:25:34.022Z,141.73
2019-03-12T18:28:01.383Z,131.07
2019-03-12T18:30:28.777Z,123.27
2019-03-12T18:32:56.233Z,121.50
2019-03-12T18:35:23.584Z,116.83
2019-03-12T18:37:50.944Z,113.60
2019-03-12T18:40:19.034Z,108.90
2019-03-12T18:42:46.482Z,99.20
2019-03-12T18:45:15.065Z,76.47
2019-03-12T18:47:42.616Z,67.17
2019-03-12T18:50:11.321Z,66.83
2019-03-12T18:52:38.679Z,58.97
2019-03-12T18:55:07.640Z,58.97
2019-03-12T18:57:34.990Z,59.77
2019-03-12T19:00:02.382Z,56.80
2019-03-12T19:02:29.756Z,56.70
2019-03-12T19:04:57.271Z,59.77
2019-03-12T19:07:24.617Z,58.37
2019-03-12T19:09:52.128Z,60.80
2019-03-12T19:12:19.453Z,61.77
2019-03-12T19:14:46.904Z,63.20
2019-03-12T19:17:14.317Z,62.53
2019-03-12T19:19:41.822Z,65.40
2019-03-12T19:22:09.285Z,64.77
2019-03-12T19:24:36.702Z,66.20
2019-03-12T19:27:05.785Z,67.90
2019-03-12T19:29:33.224Z,69.67
2019-03-12T19:32:02.222Z,66.13
2019-03-12T19:34:30.539Z,64.83
2019-03-12T19:36:57.973Z,62.40
2019-03-12T19:39:25.328Z,65.87
2019-03-12T19:41:53.062Z,69.07
2019-03-12T19:44:20.415Z,68.33
2019-03-12T19:46:47.889Z,73.20
2019-03-12T19:49:15.313Z,67.67
2019-03-12T19:51:46.718Z,65.63
2019-03-12T19:54:14.052Z,66.93
2019-03-12T19:56:41.612Z,61.53
2019-03-12T19:59:09.060Z,61.13
2019-03-12T20:01:36.454Z,56.80
2019-03-12T20:04:03.750Z,51.03
2019-03-12T20:06:31.301Z,48.70
2019-03-12T20:09:01.042Z,47.23
2019-03-12T20:11:33.148Z,44.53
2019-03-12T20:14:18.887Z,41.93
2019-03-12T20:16:47.855Z,43.23
2019-03-12T20:19:25.825Z,41.37
2019-03-12T20:22:00.777Z,42.20
2019-03-12T20:24:51.109Z,38.47
2019-03-12T20:27:23.025Z,36.60
2019-03-12T20:29:58.131Z,35.60
2019-03-12T20:32:27.249Z,35.53
2019-03-12T20:35:05.570Z,34.43
2019-03-12T20:37:49.567Z,34.10
2019-03-12T20:40:24.335Z,36.07
2019-03-12T20:43:09.817Z,33.67
2019-03-12T20:45:38.788Z,34.77
2019-03-12T20:48:07.986Z,37.97
2019-03-12T20:50:53.545Z,38.03
2019-03-12T20:53:39.082Z,43.53
2019-03-12T20:56:17.101Z,42.83
2019-03-12T20:59:01.317Z,45.60
2019-03-12T21:01:33.503Z,48.30
2019-03-12T21:04:05.211Z,47.47
2019-03-12T21:06:34.351Z,44.20
2019-03-12T21:09:20.019Z,45.23
2019-03-12T21:11:51.989Z,42.53
2019-03-12T21:14:24.035Z,42.57
2019-03-12T21:16:53.062Z,42.23
2019-03-12T21:19:38.737Z,42.30
2019-03-12T21:22:07.846Z,42.40
2019-03-12T21:24:53.523Z,43.83
2019-03-12T21:27:34.768Z,43.50
2019-03-12T21:30:01.942Z,40.80
2019-03-12T21:32:29.281Z,41.90
2019-03-12T21:34:56.655Z,43.10
2019-03-12T21:37:24.057Z,41.03
2019-03-12T21:39:55.660Z,41.13
2019-03-12T21:42:20.627Z,42.17
2019-03-12T21:44:47.913Z,41.43
2019-03-12T21:47:15.254Z,42.10
2019-03-12T21:49:42.624Z,45.13
2019-03-12T21:52:12.812Z,45.10
2019-03-12T21:54:40.175Z,44.97
2019-03-12T21:57:07.589Z,43.80
2019-03-12T21:59:34.921Z,42.30
2019-03-12T22:02:02.349Z,47.67
2019-03-12T22:04:29.779Z,43.50
2019-03-12T22:06:57.220Z,42.50
2019-03-12T22:09:24.607Z,40.33
2019-03-12T22:11:51.998Z,41.83
2019-03-12T22:14:19.405Z,41.00
2019-03-12T22:16:50.148Z,39.17
2019-03-12T22:19:17.575Z,39.83
2019-03-12T22:21:49.139Z,40.73
2019-03-12T22:24:18.096Z,41.10
2019-03-12T22:26:45.822Z,44.27
2019-03-12T22:29:13.153Z,44.60
2019-03-12T22:31:40.593Z,45.90
2019-03-12T22:34:08.079Z,43.03
2019-03-12T22:36:35.444Z,45.73
2019-03-12T22:39:02.980Z,43.13
2019-03-12T22:41:30.342Z,45.97
2019-03-12T22:43:57.657Z,42.87
2019-03-12T22:46:26.696Z,48.73
2019-03-12T22:48:53.997Z,49.93
2019-03-12T22:51:21.324Z,48.73
2019-03-12T22:53:48.742Z,46.77
2019-03-12T22:56:16.104Z,46.67
2019-03-12T22:58:43.506Z,46.07
2019-03-12T23:01:11.068Z,42.87
2019-03-12T23:03:38.561Z,43.83
2019-03-12T23:06:05.996Z,41.50
2019-03-12T23:08:33.383Z,40.27
2019-03-12T23:11:00.760Z,40.27
2019-03-12T23:13:28.133Z,41.13
2019-03-12T23:15:55.639Z,41.53
2019-03-12T23:18:23.064Z,42.27
2019-03-12T23:20:50.471Z,42.63
2019-03-12T23:23:17.827Z,42.23
2019-03-12T23:25:45.197Z,41.10
2019-03-12T23:28:12.608Z,40.77
2019-03-12T23:30:40.012Z,39.80
2019-03-12T23:33:07.470Z,39.03
2019-03-12T23:35:34.821Z,36.23
2019-03-12T23:38:02.214Z,33.80
2019-03-12T23:40:29.629Z,36.77
2019-03-12T23:42:56.985Z,31.57
2019-03-12T23:45:24.421Z,29.67
2019-03-12T23:47:51.834Z,27.73
2019-03-12T23:50:19.365Z,26.67
2019-03-12T23:52:46.771Z,23.70
2019-03-12T23:55:14.829Z,24.73
2019-03-12T23:57:42.195Z,25.33
